Terminal Aerodrome Forecast
Issued by NWS Jackson, KY

Home | Current Version | Previous Version | Text Only | Print | Product List | Glossary On
Versions: 1 2 3 4 5 6 7 8 9 10 11 12 13 14 15 16 17 18 19 20 21 22 23
000
FTUS43 KJKL 021428 AAB
TAFJKL
TAF AMD
KJKL 021428Z 0214/0312 00000KT P6SM OVC003
     FM021630 00000KT P6SM OVC005
     FM021800 00000KT P6SM OVC008
     FM030600 00000KT 1SM BR OVC002=

USA.gov is the U.S. government's official web portal to all federal, state and local government web resources and services.